Argyle, Michigan
Current Conditions -  °F | °C
As of 2:15 PM on Monday 20 Oct 2014 (Local Time) from KCFS Reporting Station
Overcast Overcast  
Wind Chill: 13°   Ceiling: 1700
Heat Index: 13°   Visibility: 10mi
Dew Point:   Wind: 6mph
Humidity: 79%   Direction: 260°W
Pressure: 29.77"   Gusts: NA
Location:  43.56°N, 82.94°W
Report Text: KCFS 201815Z AUTO 26005KT 10SM OVC017 13/09 A2977 RMK AO2 T01260090
Loading
Personal Weather Stations






























Interactive Weather Map
Tropical Storm Tracking
New forecast layout! Learn more

10-Day Weather Forecast

Advertisements
Track Severe Weather on mobile